sensor_id;sensor_type;location;lat;lon;timestamp;temperature;humidity
4934;DHT22;2482;49.154;8.254;2023-04-15T00:00:56;4.60;99.90
4934;DHT22;2482;49.154;8.254;2023-04-15T00:03:24;4.60;99.90
4934;DHT22;2482;49.154;8.254;2023-04-15T00:05:52;4.50;99.90
4934;DHT22;2482;49.154;8.254;2023-04-15T00:08:19;4.50;99.90
4934;DHT22;2482;49.154;8.254;2023-04-15T00:10:46;4.40;99.90
4934;DHT22;2482;49.154;8.254;2023-04-15T00:13:13;4.40;99.90
4934;DHT22;2482;49.154;8.254;2023-04-15T00:15:41;4.50;99.90
4934;DHT22;2482;49.154;8.254;2023-04-15T00:18:09;4.60;99.90
4934;DHT22;2482;49.154;8.254;2023-04-15T00:20:36;4.60;99.90
4934;DHT22;2482;49.154;8.254;2023-04-15T00:23:03;4.50;99.90
4934;DHT22;2482;49.154;8.254;2023-04-15T00:25:31;4.30;99.90
4934;DHT22;2482;49.154;8.254;2023-04-15T00:27:58;4.30;99.90
4934;DHT22;2482;49.154;8.254;2023-04-15T00:30:25;4.20;99.90
4934;DHT22;2482;49.154;8.254;2023-04-15T00:32:52;4.20;99.90
4934;DHT22;2482;49.154;8.254;2023-04-15T00:35:19;4.20;99.90
4934;DHT22;2482;49.154;8.254;2023-04-15T00:37:47;4.20;99.90
4934;DHT22;2482;49.154;8.254;2023-04-15T00:40:17;4.20;99.90
4934;DHT22;2482;49.154;8.254;2023-04-15T00:42:45;4.20;99.90
4934;DHT22;2482;49.154;8.254;2023-04-15T00:45:12;4.20;99.90
4934;DHT22;2482;49.154;8.254;2023-04-15T00:47:41;4.30;99.90
4934;DHT22;2482;49.154;8.254;2023-04-15T00:50:09;4.40;99.90
4934;DHT22;2482;49.154;8.254;2023-04-15T00:52:37;4.30;99.90
4934;DHT22;2482;49.154;8.254;2023-04-15T00:55:05;4.40;99.90
4934;DHT22;2482;49.154;8.254;2023-04-15T00:57:34;4.50;99.90
4934;DHT22;2482;49.154;8.254;2023-04-15T01:00:02;4.50;99.90
4934;DHT22;2482;49.154;8.254;2023-04-15T01:02:31;4.60;99.90
4934;DHT22;2482;49.154;8.254;2023-04-15T01:04:59;4.60;99.90
4934;DHT22;2482;49.154;8.254;2023-04-15T01:07:26;4.40;99.90
4934;DHT22;2482;49.154;8.254;2023-04-15T01:09:53;4.20;99.90
4934;DHT22;2482;49.154;8.254;2023-04-15T01:12:20;4.20;99.90
4934;DHT22;2482;49.154;8.254;2023-04-15T01:14:47;4.20;99.90
4934;DHT22;2482;49.154;8.254;2023-04-15T01:17:14;4.10;99.90
4934;DHT22;2482;49.154;8.254;2023-04-15T01:19:41;4.10;99.90
4934;DHT22;2482;49.154;8.254;2023-04-15T01:22:08;4.10;99.90
4934;DHT22;2482;49.154;8.254;2023-04-15T01:24:36;4.10;99.90
4934;DHT22;2482;49.154;8.254;2023-04-15T01:27:03;3.90;99.90
4934;DHT22;2482;49.154;8.254;2023-04-15T01:29:34;3.90;99.90
4934;DHT22;2482;49.154;8.254;2023-04-15T01:32:03;4.10;99.90
4934;DHT22;2482;49.154;8.254;2023-04-15T01:34:30;3.90;99.90
4934;DHT22;2482;49.154;8.254;2023-04-15T01:37:01;3.70;99.90
4934;DHT22;2482;49.154;8.254;2023-04-15T01:39:28;3.60;99.90
4934;DHT22;2482;49.154;8.254;2023-04-15T01:41:55;3.30;99.90
4934;DHT22;2482;49.154;8.254;2023-04-15T01:44:22;3.30;99.90
4934;DHT22;2482;49.154;8.254;2023-04-15T01:46:49;3.30;99.90
4934;DHT22;2482;49.154;8.254;2023-04-15T01:49:16;3.40;99.90
4934;DHT22;2482;49.154;8.254;2023-04-15T01:51:44;3.40;99.90
4934;DHT22;2482;49.154;8.254;2023-04-15T01:54:11;3.30;99.90
4934;DHT22;2482;49.154;8.254;2023-04-15T01:56:38;3.30;99.90
4934;DHT22;2482;49.154;8.254;2023-04-15T01:59:05;3.40;99.90
4934;DHT22;2482;49.154;8.254;2023-04-15T02:01:32;3.40;99.90
4934;DHT22;2482;49.154;8.254;2023-04-15T02:03:59;3.60;99.90
4934;DHT22;2482;49.154;8.254;2023-04-15T02:06:26;3.50;99.90
4934;DHT22;2482;49.154;8.254;2023-04-15T02:08:53;3.40;99.90
4934;DHT22;2482;49.154;8.254;2023-04-15T02:11:20;3.40;99.90
4934;DHT22;2482;49.154;8.254;2023-04-15T02:13:48;3.30;99.90
4934;DHT22;2482;49.154;8.254;2023-04-15T02:16:19;3.20;99.90
4934;DHT22;2482;49.154;8.254;2023-04-15T02:18:46;3.00;99.90
4934;DHT22;2482;49.154;8.254;2023-04-15T02:21:14;3.00;99.90
4934;DHT22;2482;49.154;8.254;2023-04-15T02:23:41;3.00;99.90
4934;DHT22;2482;49.154;8.254;2023-04-15T02:26:09;3.10;99.90
4934;DHT22;2482;49.154;8.254;2023-04-15T02:28:37;3.10;99.90
4934;DHT22;2482;49.154;8.254;2023-04-15T02:31:05;3.30;99.90
4934;DHT22;2482;49.154;8.254;2023-04-15T02:33:33;3.30;99.90
4934;DHT22;2482;49.154;8.254;2023-04-15T02:36:00;3.10;99.90
4934;DHT22;2482;49.154;8.254;2023-04-15T02:38:27;3.00;99.90
4934;DHT22;2482;49.154;8.254;2023-04-15T02:40:54;3.10;99.90
4934;DHT22;2482;49.154;8.254;2023-04-15T02:43:21;3.10;99.90
4934;DHT22;2482;49.154;8.254;2023-04-15T02:45:48;3.30;99.90
4934;DHT22;2482;49.154;8.254;2023-04-15T02:48:15;3.60;99.90
4934;DHT22;2482;49.154;8.254;2023-04-15T02:50:45;3.70;99.90
4934;DHT22;2482;49.154;8.254;2023-04-15T02:53:13;3.70;99.90
4934;DHT22;2482;49.154;8.254;2023-04-15T02:55:40;3.90;99.90
4934;DHT22;2482;49.154;8.254;2023-04-15T02:58:08;3.60;99.90
4934;DHT22;2482;49.154;8.254;2023-04-15T03:00:35;3.50;99.90
4934;DHT22;2482;49.154;8.254;2023-04-15T03:03:03;3.20;99.90
4934;DHT22;2482;49.154;8.254;2023-04-15T03:05:31;3.00;99.90
4934;DHT22;2482;49.154;8.254;2023-04-15T03:07:58;2.80;99.90
4934;DHT22;2482;49.154;8.254;2023-04-15T03:10:27;2.90;99.90
4934;DHT22;2482;49.154;8.254;2023-04-15T03:12:54;3.00;99.90
4934;DHT22;2482;49.154;8.254;2023-04-15T03:15:21;3.20;99.90
4934;DHT22;2482;49.154;8.254;2023-04-15T03:17:48;3.40;99.90
4934;DHT22;2482;49.154;8.254;2023-04-15T03:20:15;3.10;99.90
4934;DHT22;2482;49.154;8.254;2023-04-15T03:22:42;3.00;99.90
4934;DHT22;2482;49.154;8.254;2023-04-15T03:25:09;3.00;99.90
4934;DHT22;2482;49.154;8.254;2023-04-15T03:27:37;3.00;99.90
4934;DHT22;2482;49.154;8.254;2023-04-15T03:30:05;3.00;99.90
4934;DHT22;2482;49.154;8.254;2023-04-15T03:32:33;3.00;99.90
4934;DHT22;2482;49.154;8.254;2023-04-15T03:35:00;3.00;99.90
4934;DHT22;2482;49.154;8.254;2023-04-15T03:37:27;3.20;99.90
4934;DHT22;2482;49.154;8.254;2023-04-15T03:39:55;3.40;99.90
4934;DHT22;2482;49.154;8.254;2023-04-15T03:42:22;3.60;99.90
4934;DHT22;2482;49.154;8.254;2023-04-15T03:44:49;3.20;99.90
4934;DHT22;2482;49.154;8.254;2023-04-15T03:47:16;3.10;99.90
4934;DHT22;2482;49.154;8.254;2023-04-15T03:49:43;3.00;99.90
4934;DHT22;2482;49.154;8.254;2023-04-15T03:52:10;3.00;99.90
4934;DHT22;2482;49.154;8.254;2023-04-15T03:54:37;2.90;99.90
4934;DHT22;2482;49.154;8.254;2023-04-15T03:57:04;2.80;99.90
4934;DHT22;2482;49.154;8.254;2023-04-15T03:59:31;2.60;99.90
4934;DHT22;2482;49.154;8.254;2023-04-15T04:01:58;2.30;99.90
4934;DHT22;2482;49.154;8.254;2023-04-15T04:04:25;2.30;99.90
4934;DHT22;2482;49.154;8.254;2023-04-15T04:06:52;2.40;99.90
4934;DHT22;2482;49.154;8.254;2023-04-15T04:09:19;2.20;99.90
4934;DHT22;2482;49.154;8.254;2023-04-15T04:11:46;2.20;99.90
4934;DHT22;2482;49.154;8.254;2023-04-15T04:14:13;2.40;99.90
4934;DHT22;2482;49.154;8.254;2023-04-15T04:16:40;2.40;99.90
4934;DHT22;2482;49.154;8.254;2023-04-15T04:19:07;2.10;99.90
4934;DHT22;2482;49.154;8.254;2023-04-15T04:21:34;2.00;99.90
4934;DHT22;2482;49.154;8.254;2023-04-15T04:24:03;2.10;99.90
4934;DHT22;2482;49.154;8.254;2023-04-15T04:26:30;1.90;99.90
4934;DHT22;2482;49.154;8.254;2023-04-15T04:28:57;1.90;99.90
4934;DHT22;2482;49.154;8.254;2023-04-15T04:31:24;1.90;99.90
4934;DHT22;2482;49.154;8.254;2023-04-15T04:33:52;1.80;99.90
4934;DHT22;2482;49.154;8.254;2023-04-15T04:36:19;1.50;99.90
4934;DHT22;2482;49.154;8.254;2023-04-15T04:38:46;1.60;99.90
4934;DHT22;2482;49.154;8.254;2023-04-15T04:41:13;1.60;99.90
4934;DHT22;2482;49.154;8.254;2023-04-15T04:43:40;1.70;99.90
4934;DHT22;2482;49.154;8.254;2023-04-15T04:46:07;1.80;99.90
4934;DHT22;2482;49.154;8.254;2023-04-15T04:48:35;2.00;99.90
4934;DHT22;2482;49.154;8.254;2023-04-15T04:51:02;2.10;99.90
4934;DHT22;2482;49.154;8.254;2023-04-15T04:53:29;2.20;99.90
4934;DHT22;2482;49.154;8.254;2023-04-15T04:55:56;2.20;99.90
4934;DHT22;2482;49.154;8.254;2023-04-15T04:58:23;2.30;99.90
4934;DHT22;2482;49.154;8.254;2023-04-15T05:00:50;2.50;99.90
4934;DHT22;2482;49.154;8.254;2023-04-15T05:03:18;2.60;99.90
4934;DHT22;2482;49.154;8.254;2023-04-15T05:05:46;2.80;99.90
4934;DHT22;2482;49.154;8.254;2023-04-15T05:08:15;2.80;99.90
4934;DHT22;2482;49.154;8.254;2023-04-15T05:10:42;2.90;99.90
4934;DHT22;2482;49.154;8.254;2023-04-15T05:13:09;2.90;99.90
4934;DHT22;2482;49.154;8.254;2023-04-15T05:15:36;2.90;99.90
4934;DHT22;2482;49.154;8.254;2023-04-15T05:18:05;3.00;99.90
4934;DHT22;2482;49.154;8.254;2023-04-15T05:20:32;3.00;99.90
4934;DHT22;2482;49.154;8.254;2023-04-15T05:22:59;3.10;99.90
4934;DHT22;2482;49.154;8.254;2023-04-15T05:25:26;3.40;99.90
4934;DHT22;2482;49.154;8.254;2023-04-15T05:27:53;3.50;99.90
4934;DHT22;2482;49.154;8.254;2023-04-15T05:30:20;3.60;99.90
4934;DHT22;2482;49.154;8.254;2023-04-15T05:32:47;3.80;99.90
4934;DHT22;2482;49.154;8.254;2023-04-15T05:35:14;4.30;99.90
4934;DHT22;2482;49.154;8.254;2023-04-15T05:37:41;4.60;99.90
4934;DHT22;2482;49.154;8.254;2023-04-15T05:40:09;4.60;99.90
4934;DHT22;2482;49.154;8.254;2023-04-15T05:42:36;4.80;99.90
4934;DHT22;2482;49.154;8.254;2023-04-15T05:45:03;4.90;99.90
4934;DHT22;2482;49.154;8.254;2023-04-15T05:47:35;5.00;99.90
4934;DHT22;2482;49.154;8.254;2023-04-15T05:50:03;5.10;99.90
4934;DHT22;2482;49.154;8.254;2023-04-15T05:52:31;5.10;99.90
4934;DHT22;2482;49.154;8.254;2023-04-15T05:54:58;5.20;99.90
4934;DHT22;2482;49.154;8.254;2023-04-15T05:57:25;5.30;99.90
4934;DHT22;2482;49.154;8.254;2023-04-15T05:59:52;5.30;99.90
4934;DHT22;2482;49.154;8.254;2023-04-15T06:02:19;5.50;99.90
4934;DHT22;2482;49.154;8.254;2023-04-15T06:04:46;5.50;99.90
4934;DHT22;2482;49.154;8.254;2023-04-15T06:07:14;5.50;99.90
4934;DHT22;2482;49.154;8.254;2023-04-15T06:09:41;5.70;99.90
4934;DHT22;2482;49.154;8.254;2023-04-15T06:12:08;5.90;99.90
4934;DHT22;2482;49.154;8.254;2023-04-15T06:14:38;5.90;99.90
4934;DHT22;2482;49.154;8.254;2023-04-15T06:17:06;5.90;99.90
4934;DHT22;2482;49.154;8.254;2023-04-15T06:19:33;6.10;99.90
4934;DHT22;2482;49.154;8.254;2023-04-15T06:22:02;6.20;99.90
4934;DHT22;2482;49.154;8.254;2023-04-15T06:24:29;6.20;99.90
4934;DHT22;2482;49.154;8.254;2023-04-15T06:26:57;6.20;99.90
4934;DHT22;2482;49.154;8.254;2023-04-15T06:29:24;6.30;99.90
4934;DHT22;2482;49.154;8.254;2023-04-15T06:31:50;6.60;99.90
4934;DHT22;2482;49.154;8.254;2023-04-15T06:34:18;6.70;99.90
4934;DHT22;2482;49.154;8.254;2023-04-15T06:36:44;6.80;99.90
4934;DHT22;2482;49.154;8.254;2023-04-15T06:39:12;7.00;99.90
4934;DHT22;2482;49.154;8.254;2023-04-15T06:41:39;7.20;99.90
4934;DHT22;2482;49.154;8.254;2023-04-15T06:44:06;7.30;99.90
4934;DHT22;2482;49.154;8.254;2023-04-15T06:46:33;7.40;99.90
4934;DHT22;2482;49.154;8.254;2023-04-15T06:49:00;7.60;99.90
4934;DHT22;2482;49.154;8.254;2023-04-15T06:51:27;7.60;99.90
4934;DHT22;2482;49.154;8.254;2023-04-15T06:53:54;7.70;99.90
4934;DHT22;2482;49.154;8.254;2023-04-15T06:56:22;7.90;99.90
4934;DHT22;2482;49.154;8.254;2023-04-15T06:58:49;7.70;99.90
4934;DHT22;2482;49.154;8.254;2023-04-15T07:01:17;7.80;99.90
4934;DHT22;2482;49.154;8.254;2023-04-15T07:03:45;7.50;99.90
4934;DHT22;2482;49.154;8.254;2023-04-15T07:06:12;7.50;99.90
4934;DHT22;2482;49.154;8.254;2023-04-15T07:08:39;7.50;99.90
4934;DHT22;2482;49.154;8.254;2023-04-15T07:11:07;7.40;99.90
4934;DHT22;2482;49.154;8.254;2023-04-15T07:13:34;7.50;99.90
4934;DHT22;2482;49.154;8.254;2023-04-15T07:16:01;7.80;99.90
4934;DHT22;2482;49.154;8.254;2023-04-15T07:18:28;7.80;99.90
4934;DHT22;2482;49.154;8.254;2023-04-15T07:20:56;7.90;99.90
4934;DHT22;2482;49.154;8.254;2023-04-15T07:23:23;7.70;99.90
4934;DHT22;2482;49.154;8.254;2023-04-15T07:25:50;7.80;99.90
4934;DHT22;2482;49.154;8.254;2023-04-15T07:28:17;8.10;99.90
4934;DHT22;2482;49.154;8.254;2023-04-15T07:30:44;8.20;99.90
4934;DHT22;2482;49.154;8.254;2023-04-15T07:33:11;8.20;99.90
4934;DHT22;2482;49.154;8.254;2023-04-15T07:35:39;8.50;99.90
4934;DHT22;2482;49.154;8.254;2023-04-15T07:38:06;8.60;99.90
4934;DHT22;2482;49.154;8.254;2023-04-15T07:40:33;8.60;99.90
4934;DHT22;2482;49.154;8.254;2023-04-15T07:43:00;8.60;99.90
4934;DHT22;2482;49.154;8.254;2023-04-15T07:45:26;8.90;99.90
4934;DHT22;2482;49.154;8.254;2023-04-15T07:47:54;9.00;99.90
4934;DHT22;2482;49.154;8.254;2023-04-15T07:50:23;9.00;99.90
4934;DHT22;2482;49.154;8.254;2023-04-15T07:52:50;9.10;99.90
4934;DHT22;2482;49.154;8.254;2023-04-15T07:55:18;9.30;99.90
4934;DHT22;2482;49.154;8.254;2023-04-15T07:57:48;9.40;99.90
4934;DHT22;2482;49.154;8.254;2023-04-15T08:00:15;9.50;99.90
4934;DHT22;2482;49.154;8.254;2023-04-15T08:02:42;9.80;99.90
4934;DHT22;2482;49.154;8.254;2023-04-15T08:05:09;9.60;99.90
4934;DHT22;2482;49.154;8.254;2023-04-15T08:07:37;9.50;99.90
4934;DHT22;2482;49.154;8.254;2023-04-15T08:10:04;9.50;99.90
4934;DHT22;2482;49.154;8.254;2023-04-15T08:12:32;10.00;99.90
4934;DHT22;2482;49.154;8.254;2023-04-15T08:14:59;10.20;99.90
4934;DHT22;2482;49.154;8.254;2023-04-15T08:17:26;10.50;99.90
4934;DHT22;2482;49.154;8.254;2023-04-15T08:19:53;10.70;99.90
4934;DHT22;2482;49.154;8.254;2023-04-15T08:22:20;10.90;99.90
4934;DHT22;2482;49.154;8.254;2023-04-15T08:24:48;11.00;99.90
4934;DHT22;2482;49.154;8.254;2023-04-15T08:27:14;11.20;99.90
4934;DHT22;2482;49.154;8.254;2023-04-15T08:29:41;11.50;99.90
4934;DHT22;2482;49.154;8.254;2023-04-15T08:32:08;11.50;99.90
4934;DHT22;2482;49.154;8.254;2023-04-15T08:34:36;11.50;99.90
4934;DHT22;2482;49.154;8.254;2023-04-15T08:37:03;11.60;99.90
4934;DHT22;2482;49.154;8.254;2023-04-15T08:39:30;11.60;99.90
4934;DHT22;2482;49.154;8.254;2023-04-15T08:42:02;11.70;99.90
4934;DHT22;2482;49.154;8.254;2023-04-15T08:44:33;12.00;99.90
4934;DHT22;2482;49.154;8.254;2023-04-15T08:47:03;12.20;99.90
4934;DHT22;2482;49.154;8.254;2023-04-15T08:49:38;12.30;99.90
4934;DHT22;2482;49.154;8.254;2023-04-15T08:52:08;12.50;99.90
4934;DHT22;2482;49.154;8.254;2023-04-15T08:54:35;12.60;99.90
4934;DHT22;2482;49.154;8.254;2023-04-15T08:57:03;12.30;99.90
4934;DHT22;2482;49.154;8.254;2023-04-15T08:59:30;12.50;99.90
4934;DHT22;2482;49.154;8.254;2023-04-15T09:01:57;12.80;99.90
4934;DHT22;2482;49.154;8.254;2023-04-15T09:04:24;12.80;99.90
4934;DHT22;2482;49.154;8.254;2023-04-15T09:06:51;13.10;99.90
4934;DHT22;2482;49.154;8.254;2023-04-15T09:09:18;13.10;99.90
4934;DHT22;2482;49.154;8.254;2023-04-15T09:11:45;13.20;99.90
4934;DHT22;2482;49.154;8.254;2023-04-15T09:14:12;13.60;99.90
4934;DHT22;2482;49.154;8.254;2023-04-15T09:16:56;13.70;99.90
4934;DHT22;2482;49.154;8.254;2023-04-15T09:19:24;14.00;99.90
4934;DHT22;2482;49.154;8.254;2023-04-15T09:21:53;14.10;99.90
4934;DHT22;2482;49.154;8.254;2023-04-15T09:24:34;14.10;99.90
4934;DHT22;2482;49.154;8.254;2023-04-15T09:27:04;14.30;99.90
4934;DHT22;2482;49.154;8.254;2023-04-15T09:29:32;14.00;99.90
4934;DHT22;2482;49.154;8.254;2023-04-15T09:32:15;13.90;99.90
4934;DHT22;2482;49.154;8.254;2023-04-15T09:34:42;13.90;99.90
4934;DHT22;2482;49.154;8.254;2023-04-15T09:37:10;14.10;99.90
4934;DHT22;2482;49.154;8.254;2023-04-15T09:39:57;14.60;99.90
4934;DHT22;2482;49.154;8.254;2023-04-15T09:42:23;14.40;99.90
4934;DHT22;2482;49.154;8.254;2023-04-15T09:44:52;14.20;99.90
4934;DHT22;2482;49.154;8.254;2023-04-15T09:47:27;14.10;99.90
4934;DHT22;2482;49.154;8.254;2023-04-15T09:49:58;14.40;99.90
4934;DHT22;2482;49.154;8.254;2023-04-15T09:52:27;14.40;99.90
4934;DHT22;2482;49.154;8.254;2023-04-15T09:54:57;14.00;99.90
4934;DHT22;2482;49.154;8.254;2023-04-15T09:57:25;14.20;99.90
4934;DHT22;2482;49.154;8.254;2023-04-15T09:59:59;14.00;99.90
4934;DHT22;2482;49.154;8.254;2023-04-15T10:02:27;14.00;99.90
4934;DHT22;2482;49.154;8.254;2023-04-15T10:04:55;14.00;99.90
4934;DHT22;2482;49.154;8.254;2023-04-15T10:07:24;14.00;99.90
4934;DHT22;2482;49.154;8.254;2023-04-15T10:09:52;14.20;99.90
4934;DHT22;2482;49.154;8.254;2023-04-15T10:12:19;14.30;99.90
4934;DHT22;2482;49.154;8.254;2023-04-15T10:14:52;14.40;99.90
4934;DHT22;2482;49.154;8.254;2023-04-15T10:17:29;14.50;99.90
4934;DHT22;2482;49.154;8.254;2023-04-15T10:20:04;14.50;99.90
4934;DHT22;2482;49.154;8.254;2023-04-15T10:22:32;14.40;99.90
4934;DHT22;2482;49.154;8.254;2023-04-15T10:25:01;14.40;99.90
4934;DHT22;2482;49.154;8.254;2023-04-15T10:27:30;14.50;99.90
4934;DHT22;2482;49.154;8.254;2023-04-15T10:29:59;14.60;99.90
4934;DHT22;2482;49.154;8.254;2023-04-15T10:32:26;14.80;99.90
4934;DHT22;2482;49.154;8.254;2023-04-15T10:34:54;14.80;99.90
4934;DHT22;2482;49.154;8.254;2023-04-15T10:37:24;14.70;99.90
4934;DHT22;2482;49.154;8.254;2023-04-15T10:40:00;14.80;99.90
4934;DHT22;2482;49.154;8.254;2023-04-15T10:42:33;14.80;99.90
4934;DHT22;2482;49.154;8.254;2023-04-15T10:45:01;14.70;99.90
4934;DHT22;2482;49.154;8.254;2023-04-15T10:47:28;14.80;99.90
4934;DHT22;2482;49.154;8.254;2023-04-15T10:49:59;14.40;99.90
4934;DHT22;2482;49.154;8.254;2023-04-15T10:52:27;14.40;99.90
4934;DHT22;2482;49.154;8.254;2023-04-15T10:55:03;14.40;99.90
4934;DHT22;2482;49.154;8.254;2023-04-15T10:57:39;14.80;99.90
4934;DHT22;2482;49.154;8.254;2023-04-15T11:00:14;15.00;99.90
4934;DHT22;2482;49.154;8.254;2023-04-15T11:02:56;14.70;99.90
4934;DHT22;2482;49.154;8.254;2023-04-15T11:05:48;14.60;99.90
4934;DHT22;2482;49.154;8.254;2023-04-15T11:08:19;14.60;99.90
4934;DHT22;2482;49.154;8.254;2023-04-15T11:13:18;14.70;99.90
4934;DHT22;2482;49.154;8.254;2023-04-15T11:15:52;14.60;99.90
4934;DHT22;2482;49.154;8.254;2023-04-15T11:18:27;14.50;99.90
4934;DHT22;2482;49.154;8.254;2023-04-15T11:21:01;14.70;99.90
4934;DHT22;2482;49.154;8.254;2023-04-15T11:23:42;14.70;99.90
4934;DHT22;2482;49.154;8.254;2023-04-15T11:26:12;14.60;99.90
4934;DHT22;2482;49.154;8.254;2023-04-15T11:28:42;14.60;99.90
4934;DHT22;2482;49.154;8.254;2023-04-15T11:31:11;14.70;99.90
4934;DHT22;2482;49.154;8.254;2023-04-15T11:33:58;14.80;99.90
4934;DHT22;2482;49.154;8.254;2023-04-15T11:36:28;15.20;99.90
4934;DHT22;2482;49.154;8.254;2023-04-15T11:38:58;15.10;99.90
4934;DHT22;2482;49.154;8.254;2023-04-15T11:41:25;15.10;99.90
4934;DHT22;2482;49.154;8.254;2023-04-15T11:43:52;15.50;99.90
4934;DHT22;2482;49.154;8.254;2023-04-15T11:46:20;15.30;99.90
4934;DHT22;2482;49.154;8.254;2023-04-15T11:48:48;15.30;99.90
4934;DHT22;2482;49.154;8.254;2023-04-15T11:51:15;15.00;99.90
4934;DHT22;2482;49.154;8.254;2023-04-15T11:53:49;15.20;99.90
4934;DHT22;2482;49.154;8.254;2023-04-15T11:56:22;15.10;99.90
4934;DHT22;2482;49.154;8.254;2023-04-15T11:58:55;15.00;99.90
4934;DHT22;2482;49.154;8.254;2023-04-15T12:01:34;15.00;99.90
4934;DHT22;2482;49.154;8.254;2023-04-15T12:04:11;15.10;99.90
4934;DHT22;2482;49.154;8.254;2023-04-15T12:06:39;14.80;99.90
4934;DHT22;2482;49.154;8.254;2023-04-15T12:09:14;14.80;99.90
4934;DHT22;2482;49.154;8.254;2023-04-15T12:11:55;15.00;99.90
4934;DHT22;2482;49.154;8.254;2023-04-15T12:14:27;15.00;99.90
4934;DHT22;2482;49.154;8.254;2023-04-15T12:16:59;15.10;99.90
4934;DHT22;2482;49.154;8.254;2023-04-15T12:19:30;15.10;99.90
4934;DHT22;2482;49.154;8.254;2023-04-15T12:22:07;15.40;99.90
4934;DHT22;2482;49.154;8.254;2023-04-15T12:24:36;15.60;99.90
4934;DHT22;2482;49.154;8.254;2023-04-15T12:27:06;15.90;99.90
4934;DHT22;2482;49.154;8.254;2023-04-15T12:29:35;15.90;99.90
4934;DHT22;2482;49.154;8.254;2023-04-15T12:32:09;16.10;99.90
4934;DHT22;2482;49.154;8.254;2023-04-15T12:34:40;16.30;99.90
4934;DHT22;2482;49.154;8.254;2023-04-15T12:37:08;16.70;99.90
4934;DHT22;2482;49.154;8.254;2023-04-15T12:39:42;16.40;99.90
4934;DHT22;2482;49.154;8.254;2023-04-15T12:42:10;15.90;99.90
4934;DHT22;2482;49.154;8.254;2023-04-15T12:44:38;15.60;99.90
4934;DHT22;2482;49.154;8.254;2023-04-15T12:47:08;15.20;99.90
4934;DHT22;2482;49.154;8.254;2023-04-15T12:49:37;14.90;99.90
4934;DHT22;2482;49.154;8.254;2023-04-15T12:52:05;15.10;99.90
4934;DHT22;2482;49.154;8.254;2023-04-15T12:54:32;15.20;99.90
4934;DHT22;2482;49.154;8.254;2023-04-15T12:57:00;15.30;99.90
4934;DHT22;2482;49.154;8.254;2023-04-15T12:59:32;15.40;99.90
4934;DHT22;2482;49.154;8.254;2023-04-15T13:01:59;15.70;99.90
4934;DHT22;2482;49.154;8.254;2023-04-15T13:04:26;16.10;99.90
4934;DHT22;2482;49.154;8.254;2023-04-15T13:06:56;15.80;99.90
4934;DHT22;2482;49.154;8.254;2023-04-15T13:09:23;15.60;99.90
4934;DHT22;2482;49.154;8.254;2023-04-15T13:11:50;15.50;99.90
4934;DHT22;2482;49.154;8.254;2023-04-15T13:14:18;15.30;99.90
4934;DHT22;2482;49.154;8.254;2023-04-15T13:16:45;15.20;99.90
4934;DHT22;2482;49.154;8.254;2023-04-15T13:19:12;14.90;99.90
4934;DHT22;2482;49.154;8.254;2023-04-15T13:21:40;14.90;99.90
4934;DHT22;2482;49.154;8.254;2023-04-15T13:24:07;14.70;99.90
4934;DHT22;2482;49.154;8.254;2023-04-15T13:26:35;14.60;99.90
4934;DHT22;2482;49.154;8.254;2023-04-15T13:29:02;14.50;99.90
4934;DHT22;2482;49.154;8.254;2023-04-15T13:31:32;14.30;99.90
4934;DHT22;2482;49.154;8.254;2023-04-15T13:33:59;14.20;99.90
4934;DHT22;2482;49.154;8.254;2023-04-15T13:36:26;14.00;99.90
4934;DHT22;2482;49.154;8.254;2023-04-15T13:38:53;13.90;99.90
4934;DHT22;2482;49.154;8.254;2023-04-15T13:41:21;13.80;99.90
4934;DHT22;2482;49.154;8.254;2023-04-15T13:43:48;13.70;99.90
4934;DHT22;2482;49.154;8.254;2023-04-15T13:46:15;13.60;99.90
4934;DHT22;2482;49.154;8.254;2023-04-15T13:48:42;13.60;99.90
4934;DHT22;2482;49.154;8.254;2023-04-15T13:51:09;13.60;99.90
4934;DHT22;2482;49.154;8.254;2023-04-15T13:53:36;13.50;99.90
4934;DHT22;2482;49.154;8.254;2023-04-15T13:56:06;13.50;99.90
4934;DHT22;2482;49.154;8.254;2023-04-15T13:58:35;13.50;99.90
4934;DHT22;2482;49.154;8.254;2023-04-15T14:01:03;13.50;99.90
4934;DHT22;2482;49.154;8.254;2023-04-15T14:03:34;13.50;99.90
4934;DHT22;2482;49.154;8.254;2023-04-15T14:06:03;13.50;99.90
4934;DHT22;2482;49.154;8.254;2023-04-15T14:08:30;13.50;99.90
4934;DHT22;2482;49.154;8.254;2023-04-15T14:10:57;13.50;99.90
4934;DHT22;2482;49.154;8.254;2023-04-15T14:13:24;13.40;99.90
4934;DHT22;2482;49.154;8.254;2023-04-15T14:15:51;13.40;99.90
4934;DHT22;2482;49.154;8.254;2023-04-15T14:18:18;13.40;99.90
4934;DHT22;2482;49.154;8.254;2023-04-15T14:20:45;13.40;99.90
4934;DHT22;2482;49.154;8.254;2023-04-15T14:23:12;13.40;99.90
4934;DHT22;2482;49.154;8.254;2023-04-15T14:25:39;13.40;99.90
4934;DHT22;2482;49.154;8.254;2023-04-15T14:28:06;13.50;99.90
4934;DHT22;2482;49.154;8.254;2023-04-15T14:30:33;13.60;99.90
4934;DHT22;2482;49.154;8.254;2023-04-15T14:33:00;13.50;99.90
4934;DHT22;2482;49.154;8.254;2023-04-15T14:35:28;13.60;99.90
4934;DHT22;2482;49.154;8.254;2023-04-15T14:37:55;13.60;99.90
4934;DHT22;2482;49.154;8.254;2023-04-15T14:40:22;13.60;99.90
4934;DHT22;2482;49.154;8.254;2023-04-15T14:42:49;13.80;99.90
4934;DHT22;2482;49.154;8.254;2023-04-15T14:45:16;13.80;99.90
4934;DHT22;2482;49.154;8.254;2023-04-15T14:47:43;13.80;99.90
4934;DHT22;2482;49.154;8.254;2023-04-15T14:50:11;13.70;99.90
4934;DHT22;2482;49.154;8.254;2023-04-15T14:52:38;13.60;99.90
4934;DHT22;2482;49.154;8.254;2023-04-15T14:55:06;13.70;99.90
4934;DHT22;2482;49.154;8.254;2023-04-15T14:57:34;13.80;99.90
4934;DHT22;2482;49.154;8.254;2023-04-15T15:00:02;13.80;99.90
4934;DHT22;2482;49.154;8.254;2023-04-15T15:02:30;13.70;99.90
4934;DHT22;2482;49.154;8.254;2023-04-15T15:05:05;13.60;99.90
4934;DHT22;2482;49.154;8.254;2023-04-15T15:07:32;13.60;99.90
4934;DHT22;2482;49.154;8.254;2023-04-15T15:09:59;13.60;99.90
4934;DHT22;2482;49.154;8.254;2023-04-15T15:12:26;13.60;99.90
4934;DHT22;2482;49.154;8.254;2023-04-15T15:14:57;13.60;99.90
4934;DHT22;2482;49.154;8.254;2023-04-15T15:17:24;13.60;99.90
4934;DHT22;2482;49.154;8.254;2023-04-15T15:19:51;13.70;99.90
4934;DHT22;2482;49.154;8.254;2023-04-15T15:22:18;13.50;99.90
4934;DHT22;2482;49.154;8.254;2023-04-15T15:24:47;13.70;99.90
4934;DHT22;2482;49.154;8.254;2023-04-15T15:27:14;13.80;99.90
4934;DHT22;2482;49.154;8.254;2023-04-15T15:29:41;13.70;99.90
4934;DHT22;2482;49.154;8.254;2023-04-15T15:32:08;13.70;99.90
4934;DHT22;2482;49.154;8.254;2023-04-15T15:34:35;13.60;99.90
4934;DHT22;2482;49.154;8.254;2023-04-15T15:37:02;13.50;99.90
4934;DHT22;2482;49.154;8.254;2023-04-15T15:39:29;13.40;99.90
4934;DHT22;2482;49.154;8.254;2023-04-15T15:41:56;13.40;99.90
4934;DHT22;2482;49.154;8.254;2023-04-15T15:44:23;13.20;99.90
4934;DHT22;2482;49.154;8.254;2023-04-15T15:46:50;12.90;99.90
4934;DHT22;2482;49.154;8.254;2023-04-15T15:49:17;12.60;99.90
4934;DHT22;2482;49.154;8.254;2023-04-15T15:51:45;12.50;99.90
4934;DHT22;2482;49.154;8.254;2023-04-15T15:54:12;12.30;99.90
4934;DHT22;2482;49.154;8.254;2023-04-15T15:56:39;12.10;99.90
4934;DHT22;2482;49.154;8.254;2023-04-15T15:59:07;12.00;99.90
4934;DHT22;2482;49.154;8.254;2023-04-15T16:01:34;11.90;99.90
4934;DHT22;2482;49.154;8.254;2023-04-15T16:04:01;11.90;99.90
4934;DHT22;2482;49.154;8.254;2023-04-15T16:06:28;11.80;99.90
4934;DHT22;2482;49.154;8.254;2023-04-15T16:09:00;11.70;99.90
4934;DHT22;2482;49.154;8.254;2023-04-15T16:11:28;11.60;99.90
4934;DHT22;2482;49.154;8.254;2023-04-15T16:13:55;11.50;99.90
4934;DHT22;2482;49.154;8.254;2023-04-15T16:16:22;11.40;99.90
4934;DHT22;2482;49.154;8.254;2023-04-15T16:18:49;11.40;99.90